sensor_id;sensor_type;location;lat;lon;timestamp;P1;durP1;ratioP1;P2;durP2;ratioP2
28587;SDS011;15787;49.662;10.162;2022-07-06T00:01:59;2.75;;;1.98;;
28587;SDS011;15787;49.662;10.162;2022-07-06T00:04:27;1.73;;;1.50;;
28587;SDS011;15787;49.662;10.162;2022-07-06T00:06:55;2.97;;;1.60;;
28587;SDS011;15787;49.662;10.162;2022-07-06T00:09:23;5.63;;;2.15;;
28587;SDS011;15787;49.662;10.162;2022-07-06T00:11:51;6.15;;;1.98;;
28587;SDS011;15787;49.662;10.162;2022-07-06T00:14:19;4.13;;;2.33;;
28587;SDS011;15787;49.662;10.162;2022-07-06T00:16:47;4.57;;;2.60;;
28587;SDS011;15787;49.662;10.162;2022-07-06T00:19:16;3.92;;;2.60;;
28587;SDS011;15787;49.662;10.162;2022-07-06T00:21:44;3.42;;;2.38;;
28587;SDS011;15787;49.662;10.162;2022-07-06T00:24:12;3.15;;;2.20;;
28587;SDS011;15787;49.662;10.162;2022-07-06T00:26:40;3.28;;;2.15;;
28587;SDS011;15787;49.662;10.162;2022-07-06T00:29:08;3.95;;;1.90;;
28587;SDS011;15787;49.662;10.162;2022-07-06T00:31:35;3.00;;;1.90;;
28587;SDS011;15787;49.662;10.162;2022-07-06T00:34:03;3.55;;;1.98;;
28587;SDS011;15787;49.662;10.162;2022-07-06T00:36:32;4.63;;;2.38;;
28587;SDS011;15787;49.662;10.162;2022-07-06T00:41:30;2.40;;;2.08;;
28587;SDS011;15787;49.662;10.162;2022-07-06T00:43:57;2.83;;;2.05;;
28587;SDS011;15787;49.662;10.162;2022-07-06T00:46:26;5.82;;;2.22;;
28587;SDS011;15787;49.662;10.162;2022-07-06T00:48:55;5.88;;;2.30;;
28587;SDS011;15787;49.662;10.162;2022-07-06T00:51:25;5.03;;;1.98;;
28587;SDS011;15787;49.662;10.162;2022-07-06T00:53:57;3.13;;;1.95;;
28587;SDS011;15787;49.662;10.162;2022-07-06T00:58:56;2.95;;;2.50;;
28587;SDS011;15787;49.662;10.162;2022-07-06T01:01:24;3.05;;;2.15;;
28587;SDS011;15787;49.662;10.162;2022-07-06T01:03:52;4.95;;;2.80;;
28587;SDS011;15787;49.662;10.162;2022-07-06T01:06:20;3.55;;;2.45;;
28587;SDS011;15787;49.662;10.162;2022-07-06T01:08:48;3.17;;;2.20;;
28587;SDS011;15787;49.662;10.162;2022-07-06T01:11:18;4.35;;;2.50;;
28587;SDS011;15787;49.662;10.162;2022-07-06T01:13:46;3.33;;;2.33;;
28587;SDS011;15787;49.662;10.162;2022-07-06T01:16:15;3.88;;;2.10;;
28587;SDS011;15787;49.662;10.162;2022-07-06T01:18:43;4.50;;;2.00;;
28587;SDS011;15787;49.662;10.162;2022-07-06T01:21:12;5.00;;;2.50;;
28587;SDS011;15787;49.662;10.162;2022-07-06T01:23:42;4.25;;;2.35;;
28587;SDS011;15787;49.662;10.162;2022-07-06T01:26:12;4.07;;;3.13;;
28587;SDS011;15787;49.662;10.162;2022-07-06T01:28:40;4.63;;;2.35;;
28587;SDS011;15787;49.662;10.162;2022-07-06T01:31:15;4.88;;;2.58;;
28587;SDS011;15787;49.662;10.162;2022-07-06T01:33:47;4.93;;;2.33;;
28587;SDS011;15787;49.662;10.162;2022-07-06T01:36:17;3.00;;;2.28;;
28587;SDS011;15787;49.662;10.162;2022-07-06T01:38:46;6.22;;;2.35;;
28587;SDS011;15787;49.662;10.162;2022-07-06T01:41:14;4.47;;;2.60;;
28587;SDS011;15787;49.662;10.162;2022-07-06T01:43:43;2.72;;;2.30;;
28587;SDS011;15787;49.662;10.162;2022-07-06T01:46:11;5.97;;;2.40;;
28587;SDS011;15787;49.662;10.162;2022-07-06T01:48:39;3.45;;;2.55;;
28587;SDS011;15787;49.662;10.162;2022-07-06T01:51:08;3.22;;;2.47;;
28587;SDS011;15787;49.662;10.162;2022-07-06T01:53:38;4.43;;;2.43;;
28587;SDS011;15787;49.662;10.162;2022-07-06T01:56:08;3.20;;;2.33;;
28587;SDS011;15787;49.662;10.162;2022-07-06T01:58:37;3.72;;;2.33;;
28587;SDS011;15787;49.662;10.162;2022-07-06T02:01:07;5.28;;;2.47;;
28587;SDS011;15787;49.662;10.162;2022-07-06T02:03:36;3.65;;;2.55;;
28587;SDS011;15787;49.662;10.162;2022-07-06T02:06:04;4.07;;;2.67;;
28587;SDS011;15787;49.662;10.162;2022-07-06T02:08:33;3.28;;;2.53;;
28587;SDS011;15787;49.662;10.162;2022-07-06T02:11:03;3.55;;;2.60;;
28587;SDS011;15787;49.662;10.162;2022-07-06T02:13:34;4.43;;;3.20;;
28587;SDS011;15787;49.662;10.162;2022-07-06T02:16:05;2.90;;;2.38;;
28587;SDS011;15787;49.662;10.162;2022-07-06T02:18:35;3.53;;;2.55;;
28587;SDS011;15787;49.662;10.162;2022-07-06T02:21:03;3.75;;;2.78;;
28587;SDS011;15787;49.662;10.162;2022-07-06T02:23:31;4.40;;;2.30;;
28587;SDS011;15787;49.662;10.162;2022-07-06T02:25:59;4.68;;;2.45;;
28587;SDS011;15787;49.662;10.162;2022-07-06T02:28:29;4.15;;;2.80;;
28587;SDS011;15787;49.662;10.162;2022-07-06T02:30:57;3.78;;;2.70;;
28587;SDS011;15787;49.662;10.162;2022-07-06T02:33:27;3.97;;;2.95;;
28587;SDS011;15787;49.662;10.162;2022-07-06T02:35:55;3.92;;;2.78;;
28587;SDS011;15787;49.662;10.162;2022-07-06T02:38:23;3.75;;;2.17;;
28587;SDS011;15787;49.662;10.162;2022-07-06T02:40:52;3.50;;;3.10;;
28587;SDS011;15787;49.662;10.162;2022-07-06T02:43:21;3.80;;;2.67;;
28587;SDS011;15787;49.662;10.162;2022-07-06T02:45:50;3.28;;;2.42;;
28587;SDS011;15787;49.662;10.162;2022-07-06T02:48:19;3.85;;;2.38;;
28587;SDS011;15787;49.662;10.162;2022-07-06T02:50:50;5.80;;;2.92;;
28587;SDS011;15787;49.662;10.162;2022-07-06T02:53:18;4.57;;;2.53;;
28587;SDS011;15787;49.662;10.162;2022-07-06T02:55:49;4.57;;;2.78;;
28587;SDS011;15787;49.662;10.162;2022-07-06T02:58:18;3.38;;;2.40;;
28587;SDS011;15787;49.662;10.162;2022-07-06T03:00:46;3.85;;;2.80;;
28587;SDS011;15787;49.662;10.162;2022-07-06T03:03:16;3.65;;;2.30;;
28587;SDS011;15787;49.662;10.162;2022-07-06T03:05:44;5.47;;;2.70;;
28587;SDS011;15787;49.662;10.162;2022-07-06T03:08:13;5.47;;;2.80;;
28587;SDS011;15787;49.662;10.162;2022-07-06T03:10:42;3.88;;;2.75;;
28587;SDS011;15787;49.662;10.162;2022-07-06T03:13:10;4.82;;;2.75;;
28587;SDS011;15787;49.662;10.162;2022-07-06T03:15:39;4.25;;;2.53;;
28587;SDS011;15787;49.662;10.162;2022-07-06T03:18:08;4.68;;;2.42;;
28587;SDS011;15787;49.662;10.162;2022-07-06T03:20:37;5.80;;;2.97;;
28587;SDS011;15787;49.662;10.162;2022-07-06T03:23:08;3.13;;;2.60;;
28587;SDS011;15787;49.662;10.162;2022-07-06T03:25:36;3.22;;;2.88;;
28587;SDS011;15787;49.662;10.162;2022-07-06T03:28:04;4.57;;;2.83;;
28587;SDS011;15787;49.662;10.162;2022-07-06T03:30:32;2.88;;;2.55;;
28587;SDS011;15787;49.662;10.162;2022-07-06T03:33:00;3.10;;;2.80;;
28587;SDS011;15787;49.662;10.162;2022-07-06T03:35:29;4.90;;;2.85;;
28587;SDS011;15787;49.662;10.162;2022-07-06T03:37:58;4.50;;;2.97;;
28587;SDS011;15787;49.662;10.162;2022-07-06T03:40:29;4.32;;;3.05;;
28587;SDS011;15787;49.662;10.162;2022-07-06T03:42:57;5.07;;;3.20;;
28587;SDS011;15787;49.662;10.162;2022-07-06T03:45:28;5.50;;;3.10;;
28587;SDS011;15787;49.662;10.162;2022-07-06T03:47:58;8.18;;;3.05;;
28587;SDS011;15787;49.662;10.162;2022-07-06T03:50:26;4.70;;;2.70;;
28587;SDS011;15787;49.662;10.162;2022-07-06T03:52:54;4.53;;;2.67;;
28587;SDS011;15787;49.662;10.162;2022-07-06T03:55:23;4.22;;;2.88;;
28587;SDS011;15787;49.662;10.162;2022-07-06T03:57:56;3.90;;;2.90;;
28587;SDS011;15787;49.662;10.162;2022-07-06T04:00:31;3.63;;;2.90;;
28587;SDS011;15787;49.662;10.162;2022-07-06T04:03:03;3.78;;;2.63;;
28587;SDS011;15787;49.662;10.162;2022-07-06T04:05:38;5.07;;;3.08;;
28587;SDS011;15787;49.662;10.162;2022-07-06T04:08:06;3.45;;;2.75;;
28587;SDS011;15787;49.662;10.162;2022-07-06T04:10:41;3.95;;;2.78;;
28587;SDS011;15787;49.662;10.162;2022-07-06T04:13:10;4.90;;;2.80;;
28587;SDS011;15787;49.662;10.162;2022-07-06T04:15:38;4.43;;;3.00;;
28587;SDS011;15787;49.662;10.162;2022-07-06T04:18:06;4.38;;;2.90;;
28587;SDS011;15787;49.662;10.162;2022-07-06T04:20:44;5.28;;;3.65;;
28587;SDS011;15787;49.662;10.162;2022-07-06T04:23:12;4.45;;;3.85;;
28587;SDS011;15787;49.662;10.162;2022-07-06T04:25:42;3.25;;;2.78;;
28587;SDS011;15787;49.662;10.162;2022-07-06T04:28:10;6.97;;;3.33;;
28587;SDS011;15787;49.662;10.162;2022-07-06T04:30:38;5.45;;;3.08;;
28587;SDS011;15787;49.662;10.162;2022-07-06T04:33:10;5.00;;;2.80;;
28587;SDS011;15787;49.662;10.162;2022-07-06T04:35:39;8.15;;;2.90;;
28587;SDS011;15787;49.662;10.162;2022-07-06T04:38:07;4.68;;;2.92;;
28587;SDS011;15787;49.662;10.162;2022-07-06T04:40:35;4.15;;;3.08;;
28587;SDS011;15787;49.662;10.162;2022-07-06T04:43:08;5.28;;;3.13;;
28587;SDS011;15787;49.662;10.162;2022-07-06T04:45:36;7.43;;;3.60;;
28587;SDS011;15787;49.662;10.162;2022-07-06T04:48:05;5.20;;;3.10;;
28587;SDS011;15787;49.662;10.162;2022-07-06T04:53:09;6.30;;;3.28;;
28587;SDS011;15787;49.662;10.162;2022-07-06T04:55:37;8.52;;;3.70;;
28587;SDS011;15787;49.662;10.162;2022-07-06T04:58:06;5.75;;;2.85;;
28587;SDS011;15787;49.662;10.162;2022-07-06T05:00:35;5.32;;;2.92;;
28587;SDS011;15787;49.662;10.162;2022-07-06T05:03:03;6.45;;;2.65;;
28587;SDS011;15787;49.662;10.162;2022-07-06T05:05:32;4.32;;;2.95;;
28587;SDS011;15787;49.662;10.162;2022-07-06T05:08:00;4.13;;;2.50;;
28587;SDS011;15787;49.662;10.162;2022-07-06T05:10:28;3.70;;;2.40;;
28587;SDS011;15787;49.662;10.162;2022-07-06T05:12:58;5.05;;;2.58;;
28587;SDS011;15787;49.662;10.162;2022-07-06T05:15:27;5.95;;;2.47;;
28587;SDS011;15787;49.662;10.162;2022-07-06T05:17:56;4.13;;;2.45;;
28587;SDS011;15787;49.662;10.162;2022-07-06T05:20:24;9.70;;;2.43;;
28587;SDS011;15787;49.662;10.162;2022-07-06T05:22:52;7.32;;;2.50;;
28587;SDS011;15787;49.662;10.162;2022-07-06T05:25:26;3.08;;;2.08;;
28587;SDS011;15787;49.662;10.162;2022-07-06T05:27:54;5.63;;;2.63;;
28587;SDS011;15787;49.662;10.162;2022-07-06T05:30:22;8.10;;;2.10;;
28587;SDS011;15787;49.662;10.162;2022-07-06T05:32:50;2.38;;;1.95;;
28587;SDS011;15787;49.662;10.162;2022-07-06T05:35:20;2.63;;;1.92;;
28587;SDS011;15787;49.662;10.162;2022-07-06T05:38:08;2.90;;;2.13;;
28587;SDS011;15787;49.662;10.162;2022-07-06T05:40:37;4.30;;;2.25;;
28587;SDS011;15787;49.662;10.162;2022-07-06T05:43:06;3.20;;;1.75;;
28587;SDS011;15787;49.662;10.162;2022-07-06T05:45:35;2.83;;;1.80;;
28587;SDS011;15787;49.662;10.162;2022-07-06T05:48:03;4.53;;;2.05;;
28587;SDS011;15787;49.662;10.162;2022-07-06T05:50:51;4.63;;;1.88;;
28587;SDS011;15787;49.662;10.162;2022-07-06T05:53:21;2.15;;;1.40;;
28587;SDS011;15787;49.662;10.162;2022-07-06T05:55:52;3.30;;;1.70;;
28587;SDS011;15787;49.662;10.162;2022-07-06T05:58:21;2.58;;;1.60;;
28587;SDS011;15787;49.662;10.162;2022-07-06T06:00:52;2.13;;;1.23;;
28587;SDS011;15787;49.662;10.162;2022-07-06T06:03:20;2.35;;;1.45;;
28587;SDS011;15787;49.662;10.162;2022-07-06T06:05:48;3.05;;;1.50;;
28587;SDS011;15787;49.662;10.162;2022-07-06T06:08:20;2.03;;;1.25;;
28587;SDS011;15787;49.662;10.162;2022-07-06T06:10:50;2.25;;;1.38;;
28587;SDS011;15787;49.662;10.162;2022-07-06T06:13:20;5.05;;;1.52;;
28587;SDS011;15787;49.662;10.162;2022-07-06T06:15:48;4.13;;;1.35;;
28587;SDS011;15787;49.662;10.162;2022-07-06T06:18:16;5.82;;;1.70;;
28587;SDS011;15787;49.662;10.162;2022-07-06T06:20:45;4.03;;;1.60;;
28587;SDS011;15787;49.662;10.162;2022-07-06T06:23:13;2.05;;;1.40;;
28587;SDS011;15787;49.662;10.162;2022-07-06T06:25:42;3.03;;;1.25;;
28587;SDS011;15787;49.662;10.162;2022-07-06T06:28:10;3.65;;;1.40;;
28587;SDS011;15787;49.662;10.162;2022-07-06T06:30:39;2.00;;;1.63;;
28587;SDS011;15787;49.662;10.162;2022-07-06T06:33:07;3.97;;;1.40;;
28587;SDS011;15787;49.662;10.162;2022-07-06T06:35:37;2.35;;;1.30;;
28587;SDS011;15787;49.662;10.162;2022-07-06T06:38:06;5.18;;;1.42;;
28587;SDS011;15787;49.662;10.162;2022-07-06T06:40:33;4.43;;;1.55;;
28587;SDS011;15787;49.662;10.162;2022-07-06T06:43:03;5.55;;;1.20;;
28587;SDS011;15787;49.662;10.162;2022-07-06T06:45:35;9.02;;;1.70;;
28587;SDS011;15787;49.662;10.162;2022-07-06T06:48:03;5.32;;;1.40;;
28587;SDS011;15787;49.662;10.162;2022-07-06T06:50:31;4.95;;;1.58;;
28587;SDS011;15787;49.662;10.162;2022-07-06T06:52:59;4.10;;;1.58;;
28587;SDS011;15787;49.662;10.162;2022-07-06T06:55:27;4.47;;;1.50;;
28587;SDS011;15787;49.662;10.162;2022-07-06T06:57:55;2.88;;;2.03;;
28587;SDS011;15787;49.662;10.162;2022-07-06T07:00:24;4.78;;;1.77;;
28587;SDS011;15787;49.662;10.162;2022-07-06T07:02:52;3.25;;;1.50;;
28587;SDS011;15787;49.662;10.162;2022-07-06T07:05:20;4.60;;;1.52;;
28587;SDS011;15787;49.662;10.162;2022-07-06T07:07:48;2.67;;;1.35;;
28587;SDS011;15787;49.662;10.162;2022-07-06T07:10:16;3.15;;;1.27;;
28587;SDS011;15787;49.662;10.162;2022-07-06T07:12:44;3.50;;;1.20;;
28587;SDS011;15787;49.662;10.162;2022-07-06T07:15:12;5.68;;;1.67;;
28587;SDS011;15787;49.662;10.162;2022-07-06T07:17:42;2.97;;;1.20;;
28587;SDS011;15787;49.662;10.162;2022-07-06T07:20:10;7.18;;;1.60;;
28587;SDS011;15787;49.662;10.162;2022-07-06T07:22:38;4.75;;;1.40;;
28587;SDS011;15787;49.662;10.162;2022-07-06T07:25:06;2.85;;;1.38;;
28587;SDS011;15787;49.662;10.162;2022-07-06T07:27:35;6.20;;;1.88;;
28587;SDS011;15787;49.662;10.162;2022-07-06T07:30:03;2.65;;;1.52;;
28587;SDS011;15787;49.662;10.162;2022-07-06T07:32:31;2.65;;;1.40;;
28587;SDS011;15787;49.662;10.162;2022-07-06T07:35:00;1.50;;;1.25;;
28587;SDS011;15787;49.662;10.162;2022-07-06T07:37:29;3.07;;;1.53;;
28587;SDS011;15787;49.662;10.162;2022-07-06T07:39:57;4.32;;;1.63;;
28587;SDS011;15787;49.662;10.162;2022-07-06T07:42:25;5.03;;;1.60;;
28587;SDS011;15787;49.662;10.162;2022-07-06T07:44:53;4.50;;;1.40;;
28587;SDS011;15787;49.662;10.162;2022-07-06T07:47:21;3.17;;;1.48;;
28587;SDS011;15787;49.662;10.162;2022-07-06T07:49:49;4.15;;;1.60;;
28587;SDS011;15787;49.662;10.162;2022-07-06T07:52:18;2.47;;;1.55;;
28587;SDS011;15787;49.662;10.162;2022-07-06T07:54:46;2.63;;;1.30;;
28587;SDS011;15787;49.662;10.162;2022-07-06T07:57:34;2.63;;;1.38;;
28587;SDS011;15787;49.662;10.162;2022-07-06T08:00:02;4.95;;;1.45;;
28587;SDS011;15787;49.662;10.162;2022-07-06T08:02:36;4.47;;;1.80;;
28587;SDS011;15787;49.662;10.162;2022-07-06T08:05:05;3.08;;;1.40;;
28587;SDS011;15787;49.662;10.162;2022-07-06T08:07:35;3.80;;;1.50;;
28587;SDS011;15787;49.662;10.162;2022-07-06T08:10:03;5.63;;;1.63;;
28587;SDS011;15787;49.662;10.162;2022-07-06T08:12:31;3.88;;;1.48;;
28587;SDS011;15787;49.662;10.162;2022-07-06T08:15:00;3.78;;;1.50;;
28587;SDS011;15787;49.662;10.162;2022-07-06T08:17:27;5.10;;;1.58;;
28587;SDS011;15787;49.662;10.162;2022-07-06T08:19:56;6.68;;;1.58;;
28587;SDS011;15787;49.662;10.162;2022-07-06T08:22:24;6.05;;;1.50;;
28587;SDS011;15787;49.662;10.162;2022-07-06T08:24:54;3.78;;;1.58;;
28587;SDS011;15787;49.662;10.162;2022-07-06T08:27:22;4.07;;;1.70;;
28587;SDS011;15787;49.662;10.162;2022-07-06T08:29:50;5.25;;;1.60;;
28587;SDS011;15787;49.662;10.162;2022-07-06T08:32:18;4.90;;;1.55;;
28587;SDS011;15787;49.662;10.162;2022-07-06T08:35:06;4.20;;;1.50;;
28587;SDS011;15787;49.662;10.162;2022-07-06T08:37:35;4.43;;;1.77;;
28587;SDS011;15787;49.662;10.162;2022-07-06T08:40:05;3.28;;;1.70;;
28587;SDS011;15787;49.662;10.162;2022-07-06T08:42:35;4.70;;;1.73;;
28587;SDS011;15787;49.662;10.162;2022-07-06T08:45:04;1.83;;;1.38;;
28587;SDS011;15787;49.662;10.162;2022-07-06T08:50:03;7.93;;;1.60;;
28587;SDS011;15787;49.662;10.162;2022-07-06T08:52:32;4.00;;;1.52;;
28587;SDS011;15787;49.662;10.162;2022-07-06T08:55:00;2.53;;;1.50;;
28587;SDS011;15787;49.662;10.162;2022-07-06T08:57:32;3.55;;;1.80;;
28587;SDS011;15787;49.662;10.162;2022-07-06T09:00:00;2.08;;;1.35;;
28587;SDS011;15787;49.662;10.162;2022-07-06T09:02:29;7.15;;;1.50;;
28587;SDS011;15787;49.662;10.162;2022-07-06T09:04:57;3.20;;;1.48;;
28587;SDS011;15787;49.662;10.162;2022-07-06T09:07:26;3.17;;;1.50;;
28587;SDS011;15787;49.662;10.162;2022-07-06T09:10:15;3.85;;;1.80;;
28587;SDS011;15787;49.662;10.162;2022-07-06T09:12:47;2.78;;;1.77;;
28587;SDS011;15787;49.662;10.162;2022-07-06T09:15:23;2.75;;;1.48;;
28587;SDS011;15787;49.662;10.162;2022-07-06T09:17:55;4.95;;;1.40;;
28587;SDS011;15787;49.662;10.162;2022-07-06T09:20:24;4.22;;;1.23;;
28587;SDS011;15787;49.662;10.162;2022-07-06T09:22:55;3.95;;;1.77;;
28587;SDS011;15787;49.662;10.162;2022-07-06T09:25:26;4.15;;;1.40;;
28587;SDS011;15787;49.662;10.162;2022-07-06T09:27:56;7.57;;;1.45;;
28587;SDS011;15787;49.662;10.162;2022-07-06T09:30:26;4.70;;;1.40;;
28587;SDS011;15787;49.662;10.162;2022-07-06T09:32:55;4.63;;;1.45;;
28587;SDS011;15787;49.662;10.162;2022-07-06T09:35:25;2.47;;;1.65;;
28587;SDS011;15787;49.662;10.162;2022-07-06T09:38:01;3.88;;;1.45;;
28587;SDS011;15787;49.662;10.162;2022-07-06T09:40:31;3.28;;;1.42;;
28587;SDS011;15787;49.662;10.162;2022-07-06T09:43:09;3.17;;;1.55;;
28587;SDS011;15787;49.662;10.162;2022-07-06T09:45:38;2.97;;;1.60;;
28587;SDS011;15787;49.662;10.162;2022-07-06T09:48:08;4.68;;;1.67;;
28587;SDS011;15787;49.662;10.162;2022-07-06T09:50:44;2.75;;;1.60;;
28587;SDS011;15787;49.662;10.162;2022-07-06T09:53:13;4.50;;;1.65;;
28587;SDS011;15787;49.662;10.162;2022-07-06T09:55:44;4.47;;;1.38;;
28587;SDS011;15787;49.662;10.162;2022-07-06T09:58:15;4.88;;;1.58;;
28587;SDS011;15787;49.662;10.162;2022-07-06T10:00:53;1.95;;;1.30;;
28587;SDS011;15787;49.662;10.162;2022-07-06T10:03:21;5.30;;;1.60;;
28587;SDS011;15787;49.662;10.162;2022-07-06T10:05:49;2.50;;;1.20;;
28587;SDS011;15787;49.662;10.162;2022-07-06T10:08:17;4.90;;;1.42;;
28587;SDS011;15787;49.662;10.162;2022-07-06T10:10:45;6.78;;;1.42;;
28587;SDS011;15787;49.662;10.162;2022-07-06T10:13:16;4.88;;;1.40;;
28587;SDS011;15787;49.662;10.162;2022-07-06T10:15:49;3.15;;;1.23;;
28587;SDS011;15787;49.662;10.162;2022-07-06T10:18:17;2.25;;;1.35;;
28587;SDS011;15787;49.662;10.162;2022-07-06T10:20:46;3.88;;;1.60;;
28587;SDS011;15787;49.662;10.162;2022-07-06T10:23:14;2.55;;;1.20;;
28587;SDS011;15787;49.662;10.162;2022-07-06T10:25:43;5.18;;;1.40;;
28587;SDS011;15787;49.662;10.162;2022-07-06T10:28:13;4.90;;;1.75;;
28587;SDS011;15787;49.662;10.162;2022-07-06T10:30:43;2.88;;;0.93;;
28587;SDS011;15787;49.662;10.162;2022-07-06T10:33:12;2.58;;;1.20;;
28587;SDS011;15787;49.662;10.162;2022-07-06T10:35:42;4.10;;;1.10;;
28587;SDS011;15787;49.662;10.162;2022-07-06T10:38:12;2.90;;;1.23;;
28587;SDS011;15787;49.662;10.162;2022-07-06T10:40:40;3.25;;;1.30;;
28587;SDS011;15787;49.662;10.162;2022-07-06T10:43:31;3.58;;;1.20;;
28587;SDS011;15787;49.662;10.162;2022-07-06T10:46:06;3.53;;;1.40;;
28587;SDS011;15787;49.662;10.162;2022-07-06T10:48:35;3.45;;;1.50;;
28587;SDS011;15787;49.662;10.162;2022-07-06T10:51:03;3.80;;;1.48;;
28587;SDS011;15787;49.662;10.162;2022-07-06T10:53:33;4.20;;;1.38;;
28587;SDS011;15787;49.662;10.162;2022-07-06T10:56:02;4.88;;;1.40;;
28587;SDS011;15787;49.662;10.162;2022-07-06T10:58:46;6.38;;;1.40;;
28587;SDS011;15787;49.662;10.162;2022-07-06T11:01:17;3.70;;;1.00;;
28587;SDS011;15787;49.662;10.162;2022-07-06T11:03:47;4.03;;;1.13;;
28587;SDS011;15787;49.662;10.162;2022-07-06T11:06:17;2.05;;;1.17;;
28587;SDS011;15787;49.662;10.162;2022-07-06T11:08:51;3.80;;;1.23;;
28587;SDS011;15787;49.662;10.162;2022-07-06T11:11:21;5.82;;;1.23;;
28587;SDS011;15787;49.662;10.162;2022-07-06T11:14:04;2.35;;;1.00;;
28587;SDS011;15787;49.662;10.162;2022-07-06T11:16:36;3.17;;;1.00;;
28587;SDS011;15787;49.662;10.162;2022-07-06T11:19:07;2.65;;;1.17;;
28587;SDS011;15787;49.662;10.162;2022-07-06T11:21:46;2.58;;;1.10;;
28587;SDS011;15787;49.662;10.162;2022-07-06T11:24:20;2.50;;;1.23;;
28587;SDS011;15787;49.662;10.162;2022-07-06T11:26:49;2.30;;;1.10;;
28587;SDS011;15787;49.662;10.162;2022-07-06T11:29:19;5.28;;;1.27;;
28587;SDS011;15787;49.662;10.162;2022-07-06T11:31:50;4.63;;;1.30;;
28587;SDS011;15787;49.662;10.162;2022-07-06T11:34:20;3.13;;;1.13;;
28587;SDS011;15787;49.662;10.162;2022-07-06T11:36:49;2.10;;;1.20;;
28587;SDS011;15787;49.662;10.162;2022-07-06T11:39:22;1.67;;;0.90;;
28587;SDS011;15787;49.662;10.162;2022-07-06T11:41:54;2.78;;;1.17;;
28587;SDS011;15787;49.662;10.162;2022-07-06T11:44:22;2.25;;;1.20;;
28587;SDS011;15787;49.662;10.162;2022-07-06T11:46:51;6.03;;;1.40;;
28587;SDS011;15787;49.662;10.162;2022-07-06T11:49:21;1.52;;;0.90;;
28587;SDS011;15787;49.662;10.162;2022-07-06T11:51:49;2.95;;;1.45;;
28587;SDS011;15787;49.662;10.162;2022-07-06T11:54:17;4.82;;;1.10;;
28587;SDS011;15787;49.662;10.162;2022-07-06T11:56:47;2.87;;;1.00;;
28587;SDS011;15787;49.662;10.162;2022-07-06T11:59:20;3.85;;;1.10;;
28587;SDS011;15787;49.662;10.162;2022-07-06T12:01:49;2.25;;;1.23;;
28587;SDS011;15787;49.662;10.162;2022-07-06T12:04:26;2.22;;;1.02;;
28587;SDS011;15787;49.662;10.162;2022-07-06T12:06:54;5.97;;;1.42;;
28587;SDS011;15787;49.662;10.162;2022-07-06T12:09:23;4.65;;;1.10;;
28587;SDS011;15787;49.662;10.162;2022-07-06T12:11:51;2.78;;;1.30;;
28587;SDS011;15787;49.662;10.162;2022-07-06T12:14:19;4.00;;;1.17;;
28587;SDS011;15787;49.662;10.162;2022-07-06T12:16:49;1.77;;;0.65;;
28587;SDS011;15787;49.662;10.162;2022-07-06T12:19:17;3.55;;;1.10;;
28587;SDS011;15787;49.662;10.162;2022-07-06T12:21:50;3.83;;;0.80;;
28587;SDS011;15787;49.662;10.162;2022-07-06T12:24:19;3.13;;;1.40;;
28587;SDS011;15787;49.662;10.162;2022-07-06T12:26:48;4.73;;;1.00;;
28587;SDS011;15787;49.662;10.162;2022-07-06T12:29:17;1.93;;;1.00;;
28587;SDS011;15787;49.662;10.162;2022-07-06T12:31:48;3.83;;;1.20;;
28587;SDS011;15787;49.662;10.162;2022-07-06T12:34:18;2.10;;;1.08;;
28587;SDS011;15787;49.662;10.162;2022-07-06T12:36:47;1.88;;;1.10;;
28587;SDS011;15787;49.662;10.162;2022-07-06T12:39:18;3.67;;;1.15;;
28587;SDS011;15787;49.662;10.162;2022-07-06T12:41:48;1.80;;;1.15;;
28587;SDS011;15787;49.662;10.162;2022-07-06T12:44:17;2.03;;;1.10;;
28587;SDS011;15787;49.662;10.162;2022-07-06T12:46:48;4.97;;;1.10;;
28587;SDS011;15787;49.662;10.162;2022-07-06T12:49:18;2.17;;;1.30;;
28587;SDS011;15787;49.662;10.162;2022-07-06T12:51:51;2.75;;;1.20;;
28587;SDS011;15787;49.662;10.162;2022-07-06T12:54:28;1.95;;;1.00;;
28587;SDS011;15787;49.662;10.162;2022-07-06T12:56:59;2.35;;;1.08;;
28587;SDS011;15787;49.662;10.162;2022-07-06T12:59:38;1.63;;;1.10;;
28587;SDS011;15787;49.662;10.162;2022-07-06T13:02:08;1.55;;;0.90;;
28587;SDS011;15787;49.662;10.162;2022-07-06T13:04:46;4.95;;;1.20;;
28587;SDS011;15787;49.662;10.162;2022-07-06T13:07:23;2.30;;;1.00;;
28587;SDS011;15787;49.662;10.162;2022-07-06T13:09:51;2.83;;;0.98;;
28587;SDS011;15787;49.662;10.162;2022-07-06T13:12:20;3.97;;;1.38;;
28587;SDS011;15787;49.662;10.162;2022-07-06T13:14:49;2.60;;;0.98;;
28587;SDS011;15787;49.662;10.162;2022-07-06T13:17:17;2.00;;;0.82;;
28587;SDS011;15787;49.662;10.162;2022-07-06T13:19:45;3.78;;;1.50;;
28587;SDS011;15787;49.662;10.162;2022-07-06T13:22:13;3.83;;;1.65;;
28587;SDS011;15787;49.662;10.162;2022-07-06T13:24:43;2.95;;;1.35;;
28587;SDS011;15787;49.662;10.162;2022-07-06T13:27:11;2.10;;;1.00;;
28587;SDS011;15787;49.662;10.162;2022-07-06T13:29:39;2.40;;;1.17;;
28587;SDS011;15787;49.662;10.162;2022-07-06T13:32:07;3.03;;;1.23;;
28587;SDS011;15787;49.662;10.162;2022-07-06T13:34:35;3.85;;;1.10;;
28587;SDS011;15787;49.662;10.162;2022-07-06T13:37:04;4.05;;;1.20;;
28587;SDS011;15787;49.662;10.162;2022-07-06T13:39:32;2.65;;;1.00;;
28587;SDS011;15787;49.662;10.162;2022-07-06T13:42:02;2.85;;;1.15;;
28587;SDS011;15787;49.662;10.162;2022-07-06T13:44:30;1.83;;;1.10;;
28587;SDS011;15787;49.662;10.162;2022-07-06T13:46:58;2.88;;;1.10;;
28587;SDS011;15787;49.662;10.162;2022-07-06T13:49:27;3.05;;;1.20;;
28587;SDS011;15787;49.662;10.162;2022-07-06T13:51:57;3.10;;;0.98;;
28587;SDS011;15787;49.662;10.162;2022-07-06T13:54:30;2.72;;;1.10;;
28587;SDS011;15787;49.662;10.162;2022-07-06T13:57:02;4.57;;;0.90;;
28587;SDS011;15787;49.662;10.162;2022-07-06T13:59:31;1.38;;;0.80;;
28587;SDS011;15787;49.662;10.162;2022-07-06T14:01:59;1.83;;;1.10;;
28587;SDS011;15787;49.662;10.162;2022-07-06T14:04:27;2.42;;;1.02;;
28587;SDS011;15787;49.662;10.162;2022-07-06T14:06:55;2.90;;;1.13;;
28587;SDS011;15787;49.662;10.162;2022-07-06T14:09:23;2.40;;;1.00;;
28587;SDS011;15787;49.662;10.162;2022-07-06T14:11:51;3.13;;;1.35;;
28587;SDS011;15787;49.662;10.162;2022-07-06T14:14:20;3.28;;;1.23;;
28587;SDS011;15787;49.662;10.162;2022-07-06T14:16:48;1.40;;;1.10;;
28587;SDS011;15787;49.662;10.162;2022-07-06T14:19:17;1.73;;;1.13;;
28587;SDS011;15787;49.662;10.162;2022-07-06T14:21:47;2.03;;;0.95;;
28587;SDS011;15787;49.662;10.162;2022-07-06T14:24:15;5.43;;;1.30;;
28587;SDS011;15787;49.662;10.162;2022-07-06T14:26:43;1.83;;;1.20;;
28587;SDS011;15787;49.662;10.162;2022-07-06T14:29:11;1.65;;;1.00;;
28587;SDS011;15787;49.662;10.162;2022-07-06T14:31:40;2.33;;;1.20;;
28587;SDS011;15787;49.662;10.162;2022-07-06T14:34:08;3.60;;;1.63;;
28587;SDS011;15787;49.662;10.162;2022-07-06T14:36:36;1.40;;;1.10;;
28587;SDS011;15787;49.662;10.162;2022-07-06T14:39:05;2.22;;;1.00;;
28587;SDS011;15787;49.662;10.162;2022-07-06T14:41:33;3.28;;;1.30;;
28587;SDS011;15787;49.662;10.162;2022-07-06T14:44:01;3.75;;;1.65;;
28587;SDS011;15787;49.662;10.162;2022-07-06T14:46:29;3.17;;;1.10;;
28587;SDS011;15787;49.662;10.162;2022-07-06T14:48:59;3.47;;;1.38;;
28587;SDS011;15787;49.662;10.162;2022-07-06T14:51:28;2.17;;;1.17;;
28587;SDS011;15787;49.662;10.162;2022-07-06T14:53:56;3.30;;;1.30;;
28587;SDS011;15787;49.662;10.162;2022-07-06T14:56:24;3.13;;;1.10;;
28587;SDS011;15787;49.662;10.162;2022-07-06T14:58:52;1.80;;;1.10;;